createdAt,value
2023-01-06T00:05:43.687Z,3.70
2023-01-06T00:15:50.621Z,3.30
2023-01-06T00:25:56.969Z,2.90
2023-01-06T00:36:03.463Z,3.10
2023-01-06T00:46:10.107Z,3.10
2023-01-06T00:56:16.434Z,3.50
2023-01-06T01:06:22.778Z,3.60
2023-01-06T01:16:29.127Z,3.60
2023-01-06T01:26:33.592Z,3.40
2023-01-06T01:36:42.095Z,3.20
2023-01-06T01:46:48.644Z,3.50
2023-01-06T01:56:59.205Z,4.20
2023-01-06T02:07:06.010Z,5.20
2023-01-06T02:17:30.434Z,5.10
2023-01-06T02:28:01.514Z,4.30
2023-01-06T02:38:35.035Z,4.10
2023-01-06T02:48:53.820Z,3.90
2023-01-06T02:59:11.406Z,4.30
2023-01-06T03:09:20.502Z,3.60
2023-01-06T03:19:26.885Z,4.40
2023-01-06T03:29:33.377Z,4.10
2023-01-06T03:39:42.686Z,3.80
2023-01-06T03:50:28.176Z,3.60
2023-01-06T04:00:38.214Z,3.90
2023-01-06T04:10:44.646Z,3.50
2023-01-06T04:20:50.917Z,3.30
2023-01-06T04:31:01.417Z,4.30
2023-01-06T04:41:07.749Z,3.70
2023-01-06T04:51:14.101Z,4.10
2023-01-06T05:01:20.495Z,4.10
2023-01-06T05:11:27.972Z,4.00
2023-01-06T05:21:34.276Z,4.80
2023-01-06T05:31:40.599Z,5.30
2023-01-06T05:41:47.079Z,5.40
2023-01-06T05:51:53.395Z,5.50
2023-01-06T06:01:59.739Z,5.40
2023-01-06T06:12:06.292Z,6.10
2023-01-06T06:22:12.667Z,7.00
2023-01-06T06:32:19.025Z,6.50
2023-01-06T06:42:25.319Z,7.20
2023-01-06T06:52:31.649Z,6.80
2023-01-06T07:02:37.939Z,7.10
2023-01-06T07:12:44.251Z,7.60
2023-01-06T07:22:50.503Z,8.50
2023-01-06T07:32:56.789Z,7.00
2023-01-06T07:43:10.810Z,6.60
2023-01-06T07:53:17.163Z,7.50
2023-01-06T08:03:23.490Z,6.40
2023-01-06T08:13:29.816Z,8.90
2023-01-06T08:23:36.871Z,11.40
2023-01-06T08:33:43.689Z,11.60
2023-01-06T08:43:50.261Z,11.40
2023-01-06T08:53:57.033Z,7.50
2023-01-06T09:04:06.417Z,8.40
2023-01-06T09:14:15.306Z,9.20
2023-01-06T09:24:21.616Z,7.30
2023-01-06T09:34:27.937Z,5.70
2023-01-06T09:45:07.875Z,5.60
2023-01-06T09:55:35.754Z,6.10
2023-01-06T10:05:58.182Z,6.60
2023-01-06T10:16:11.511Z,8.00
2023-01-06T10:26:29.685Z,8.90
2023-01-06T10:36:42.397Z,7.80
2023-01-06T10:46:50.715Z,8.30
2023-01-06T10:57:01.624Z,8.00
2023-01-06T11:07:12.344Z,10.80
2023-01-06T11:17:22.889Z,10.80
2023-01-06T11:27:29.431Z,8.30
2023-01-06T11:37:40.761Z,8.30
2023-01-06T11:47:50.198Z,7.60
2023-01-06T11:58:03.847Z,8.00
2023-01-06T12:08:19.334Z,9.70
2023-01-06T12:18:29.714Z,9.00
2023-01-06T12:28:38.879Z,9.10
2023-01-06T12:38:55.115Z,22.70
2023-01-06T12:49:06.145Z,10.20
2023-01-06T12:59:49.790Z,9.30
2023-01-06T13:10:00.518Z,9.90
2023-01-06T13:20:09.632Z,10.60
2023-01-06T13:30:41.255Z,11.60
2023-01-06T13:40:50.127Z,13.20
2023-01-06T13:50:57.320Z,12.00
2023-01-06T14:01:28.483Z,11.60
2023-01-06T14:11:38.971Z,10.50
2023-01-06T14:21:46.351Z,9.50
2023-01-06T14:31:52.709Z,11.60
2023-01-06T14:41:59.340Z,11.40
2023-01-06T14:52:10.881Z,11.20
2023-01-06T15:02:17.883Z,15.10
2023-01-06T15:12:31.379Z,18.40
2023-01-06T15:22:37.689Z,14.60
2023-01-06T15:32:44.324Z,12.20
2023-01-06T15:42:50.706Z,14.40
2023-01-06T15:53:05.464Z,14.80
2023-01-06T16:03:23.118Z,15.90
2023-01-06T16:13:30.385Z,24.60
2023-01-06T16:23:38.272Z,24.30
2023-01-06T16:33:48.980Z,24.30
2023-01-06T16:43:55.247Z,35.00
2023-01-06T16:54:01.620Z,23.60
2023-01-06T17:04:12.715Z,19.10
2023-01-06T17:14:20.875Z,18.20
2023-01-06T17:24:27.608Z,17.50
2023-01-06T17:34:34.907Z,17.90
2023-01-06T17:44:44.036Z,16.30
2023-01-06T17:55:12.583Z,19.60
2023-01-06T18:05:28.233Z,18.80
2023-01-06T18:15:35.447Z,16.70
2023-01-06T18:25:41.760Z,16.20
2023-01-06T18:35:48.240Z,16.20
2023-01-06T18:45:58.028Z,18.00
2023-01-06T18:56:10.193Z,14.80
2023-01-06T19:06:17.086Z,13.90
2023-01-06T19:16:38.647Z,13.40
2023-01-06T19:26:46.141Z,14.40
2023-01-06T19:36:53.950Z,14.40
2023-01-06T19:47:02.309Z,15.50
2023-01-06T19:57:21.137Z,15.80
2023-01-06T20:07:27.593Z,16.10
2023-01-06T20:17:33.858Z,15.30
2023-01-06T20:27:40.270Z,18.50
2023-01-06T20:37:46.611Z,18.00
2023-01-06T20:47:52.990Z,20.00
2023-01-06T20:57:59.351Z,19.10
2023-01-06T21:08:05.854Z,19.80
2023-01-06T21:18:12.118Z,20.30
2023-01-06T21:28:18.952Z,14.60
2023-01-06T21:38:25.338Z,12.50
2023-01-06T21:48:31.675Z,13.00
2023-01-06T21:58:38.094Z,12.10
2023-01-06T22:08:44.485Z,12.20
2023-01-06T22:18:50.979Z,14.50
2023-01-06T22:28:57.282Z,16.20
2023-01-06T22:39:03.562Z,13.60
2023-01-06T22:49:10.473Z,14.50
2023-01-06T22:59:17.221Z,12.50
2023-01-06T23:09:23.527Z,13.40
2023-01-06T23:19:29.878Z,11.40
2023-01-06T23:29:36.817Z,10.80
2023-01-06T23:39:43.106Z,10.50
2023-01-06T23:49:50.308Z,12.20
2023-01-06T23:59:56.597Z,12.60
